sensor_id;sensor_type;location;lat;lon;timestamp;pressure;altitude;pressure_sealevel;temperature;humidity
47815;BME280;33579;50.058;18.130;2023-03-23T00:00:12;98799.25;;;9.50;100.00
47815;BME280;33579;50.058;18.130;2023-03-23T00:01:17;98798.28;;;9.51;100.00
47815;BME280;33579;50.058;18.130;2023-03-23T00:02:17;98796.34;;;9.53;100.00
47815;BME280;33579;50.058;18.130;2023-03-23T00:03:18;98787.66;;;9.53;100.00
47815;BME280;33579;50.058;18.130;2023-03-23T00:04:18;98793.72;;;9.53;100.00
47815;BME280;33579;50.058;18.130;2023-03-23T00:05:19;98792.47;;;9.48;100.00
47815;BME280;33579;50.058;18.130;2023-03-23T00:06:20;98784.88;;;9.45;100.00
47815;BME280;33579;50.058;18.130;2023-03-23T00:07:22;98792.63;;;9.46;100.00
47815;BME280;33579;50.058;18.130;2023-03-23T00:08:22;98790.69;;;9.48;100.00
47815;BME280;33579;50.058;18.130;2023-03-23T00:09:23;98791.66;;;9.47;100.00
47815;BME280;33579;50.058;18.130;2023-03-23T00:10:23;98786.13;;;9.40;100.00
47815;BME280;33579;50.058;18.130;2023-03-23T00:11:26;98785.00;;;9.43;100.00
47815;BME280;33579;50.058;18.130;2023-03-23T00:12:29;98786.81;;;9.42;100.00
47815;BME280;33579;50.058;18.130;2023-03-23T00:13:30;98785.28;;;9.40;100.00
47815;BME280;33579;50.058;18.130;2023-03-23T00:14:33;98781.84;;;9.39;100.00
47815;BME280;33579;50.058;18.130;2023-03-23T00:15:33;98789.56;;;9.31;100.00
47815;BME280;33579;50.058;18.130;2023-03-23T00:16:34;98780.03;;;9.30;100.00
47815;BME280;33579;50.058;18.130;2023-03-23T00:17:34;98787.06;;;9.30;100.00
47815;BME280;33579;50.058;18.130;2023-03-23T00:18:35;98781.69;;;9.21;100.00
47815;BME280;33579;50.058;18.130;2023-03-23T00:19:37;98785.38;;;9.19;100.00
47815;BME280;33579;50.058;18.130;2023-03-23T00:20:38;98772.78;;;9.12;100.00
47815;BME280;33579;50.058;18.130;2023-03-23T00:21:40;98788.41;;;9.14;100.00
47815;BME280;33579;50.058;18.130;2023-03-23T00:22:41;98784.66;;;9.07;100.00
47815;BME280;33579;50.058;18.130;2023-03-23T00:23:41;98781.19;;;8.96;100.00
47815;BME280;33579;50.058;18.130;2023-03-23T00:24:43;98780.72;;;8.81;100.00
47815;BME280;33579;50.058;18.130;2023-03-23T00:25:44;98783.31;;;8.71;100.00
47815;BME280;33579;50.058;18.130;2023-03-23T00:26:46;98779.97;;;8.69;100.00
47815;BME280;33579;50.058;18.130;2023-03-23T00:27:47;98774.88;;;8.68;100.00
47815;BME280;33579;50.058;18.130;2023-03-23T00:28:48;98775.78;;;8.57;100.00
47815;BME280;33579;50.058;18.130;2023-03-23T00:29:49;98781.44;;;8.52;100.00
47815;BME280;33579;50.058;18.130;2023-03-23T00:30:56;98774.06;;;8.46;100.00
47815;BME280;33579;50.058;18.130;2023-03-23T00:31:57;98776.50;;;8.38;100.00
47815;BME280;33579;50.058;18.130;2023-03-23T00:32:57;98774.72;;;8.38;100.00
47815;BME280;33579;50.058;18.130;2023-03-23T00:33:59;98773.31;;;8.34;100.00
47815;BME280;33579;50.058;18.130;2023-03-23T00:34:59;98776.88;;;8.33;100.00
47815;BME280;33579;50.058;18.130;2023-03-23T00:36:00;98778.94;;;8.29;100.00
47815;BME280;33579;50.058;18.130;2023-03-23T00:37:00;98771.31;;;8.26;100.00
47815;BME280;33579;50.058;18.130;2023-03-23T00:38:01;98773.13;;;8.26;100.00
47815;BME280;33579;50.058;18.130;2023-03-23T00:39:03;98773.41;;;8.23;100.00
47815;BME280;33579;50.058;18.130;2023-03-23T00:40:03;98772.25;;;8.15;100.00
47815;BME280;33579;50.058;18.130;2023-03-23T00:41:05;98772.63;;;8.11;100.00
47815;BME280;33579;50.058;18.130;2023-03-23T00:42:05;98765.66;;;8.00;100.00
47815;BME280;33579;50.058;18.130;2023-03-23T00:43:06;98771.97;;;7.97;100.00
47815;BME280;33579;50.058;18.130;2023-03-23T00:44:06;98764.38;;;7.94;100.00
47815;BME280;33579;50.058;18.130;2023-03-23T00:45:07;98760.53;;;7.98;100.00
47815;BME280;33579;50.058;18.130;2023-03-23T00:46:07;98766.75;;;7.97;100.00
47815;BME280;33579;50.058;18.130;2023-03-23T00:47:08;98766.31;;;7.92;100.00
47815;BME280;33579;50.058;18.130;2023-03-23T00:48:08;98765.84;;;7.87;100.00
47815;BME280;33579;50.058;18.130;2023-03-23T00:49:09;98770.97;;;7.88;100.00
47815;BME280;33579;50.058;18.130;2023-03-23T00:50:09;98771.59;;;7.81;100.00
47815;BME280;33579;50.058;18.130;2023-03-23T00:51:11;98764.94;;;7.77;100.00
47815;BME280;33579;50.058;18.130;2023-03-23T00:52:11;98766.22;;;7.82;100.00
47815;BME280;33579;50.058;18.130;2023-03-23T00:53:12;98767.19;;;7.81;100.00
47815;BME280;33579;50.058;18.130;2023-03-23T00:54:12;98762.31;;;7.77;100.00
47815;BME280;33579;50.058;18.130;2023-03-23T00:55:13;98764.44;;;7.83;100.00
47815;BME280;33579;50.058;18.130;2023-03-23T00:56:13;98763.47;;;7.84;100.00
47815;BME280;33579;50.058;18.130;2023-03-23T00:57:14;98767.88;;;7.83;100.00
47815;BME280;33579;50.058;18.130;2023-03-23T00:58:15;98766.38;;;7.81;100.00
47815;BME280;33579;50.058;18.130;2023-03-23T00:59:16;98763.97;;;7.78;100.00
47815;BME280;33579;50.058;18.130;2023-03-23T01:00:18;98764.56;;;7.81;100.00
47815;BME280;33579;50.058;18.130;2023-03-23T01:01:19;98763.22;;;7.87;100.00
47815;BME280;33579;50.058;18.130;2023-03-23T01:02:19;98760.22;;;7.92;100.00
47815;BME280;33579;50.058;18.130;2023-03-23T01:03:20;98754.59;;;7.96;100.00
47815;BME280;33579;50.058;18.130;2023-03-23T01:04:20;98751.34;;;8.04;100.00
47815;BME280;33579;50.058;18.130;2023-03-23T01:05:21;98759.78;;;8.08;100.00
47815;BME280;33579;50.058;18.130;2023-03-23T01:06:22;98760.47;;;8.10;100.00
47815;BME280;33579;50.058;18.130;2023-03-23T01:07:22;98753.06;;;8.15;100.00
47815;BME280;33579;50.058;18.130;2023-03-23T01:08:23;98753.06;;;8.15;100.00
47815;BME280;33579;50.058;18.130;2023-03-23T01:09:24;98758.06;;;8.18;100.00
47815;BME280;33579;50.058;18.130;2023-03-23T01:10:25;98752.03;;;8.27;100.00
47815;BME280;33579;50.058;18.130;2023-03-23T01:11:26;98747.72;;;8.26;100.00
47815;BME280;33579;50.058;18.130;2023-03-23T01:12:26;98748.97;;;8.22;100.00
47815;BME280;33579;50.058;18.130;2023-03-23T01:13:27;98760.03;;;8.26;100.00
47815;BME280;33579;50.058;18.130;2023-03-23T01:14:27;98752.47;;;8.33;100.00
47815;BME280;33579;50.058;18.130;2023-03-23T01:15:29;98753.63;;;8.40;100.00
47815;BME280;33579;50.058;18.130;2023-03-23T01:16:29;98747.28;;;8.42;100.00
47815;BME280;33579;50.058;18.130;2023-03-23T01:17:30;98746.56;;;8.40;100.00
47815;BME280;33579;50.058;18.130;2023-03-23T01:18:30;98741.03;;;8.34;100.00
47815;BME280;33579;50.058;18.130;2023-03-23T01:19:31;98753.34;;;8.43;100.00
47815;BME280;33579;50.058;18.130;2023-03-23T01:20:32;98752.91;;;8.38;100.00
47815;BME280;33579;50.058;18.130;2023-03-23T01:21:32;98755.91;;;8.33;100.00
47815;BME280;33579;50.058;18.130;2023-03-23T01:22:33;98752.16;;;8.26;100.00
47815;BME280;33579;50.058;18.130;2023-03-23T01:23:34;98756.41;;;8.17;100.00
47815;BME280;33579;50.058;18.130;2023-03-23T01:24:35;98749.72;;;8.13;100.00
47815;BME280;33579;50.058;18.130;2023-03-23T01:25:36;98748.22;;;8.10;100.00
47815;BME280;33579;50.058;18.130;2023-03-23T01:26:36;98749.94;;;8.00;100.00
47815;BME280;33579;50.058;18.130;2023-03-23T01:27:37;98747.00;;;7.93;100.00
47815;BME280;33579;50.058;18.130;2023-03-23T01:28:38;98742.84;;;7.91;100.00
47815;BME280;33579;50.058;18.130;2023-03-23T01:29:38;98744.19;;;7.85;100.00
47815;BME280;33579;50.058;18.130;2023-03-23T01:30:39;98749.00;;;7.80;100.00
47815;BME280;33579;50.058;18.130;2023-03-23T01:31:39;98757.06;;;7.77;100.00
47815;BME280;33579;50.058;18.130;2023-03-23T01:32:41;98747.00;;;7.72;100.00
47815;BME280;33579;50.058;18.130;2023-03-23T01:33:42;98754.47;;;7.77;100.00
47815;BME280;33579;50.058;18.130;2023-03-23T01:34:43;98744.72;;;7.79;100.00
47815;BME280;33579;50.058;18.130;2023-03-23T01:35:44;98740.03;;;7.82;100.00
47815;BME280;33579;50.058;18.130;2023-03-23T01:36:44;98738.69;;;7.88;100.00
47815;BME280;33579;50.058;18.130;2023-03-23T01:37:45;98739.47;;;8.00;100.00
47815;BME280;33579;50.058;18.130;2023-03-23T01:38:47;98743.78;;;8.11;100.00
47815;BME280;33579;50.058;18.130;2023-03-23T01:39:48;98739.50;;;8.10;100.00
47815;BME280;33579;50.058;18.130;2023-03-23T01:40:49;98739.25;;;8.13;100.00
47815;BME280;33579;50.058;18.130;2023-03-23T01:41:49;98741.94;;;8.23;100.00
47815;BME280;33579;50.058;18.130;2023-03-23T01:42:54;98744.03;;;8.29;100.00
47815;BME280;33579;50.058;18.130;2023-03-23T01:43:59;98747.22;;;8.33;100.00
47815;BME280;33579;50.058;18.130;2023-03-23T01:46:19;98740.91;;;8.35;100.00
47815;BME280;33579;50.058;18.130;2023-03-23T01:47:21;98739.25;;;8.34;100.00
47815;BME280;33579;50.058;18.130;2023-03-23T01:48:49;98743.00;;;8.41;100.00
47815;BME280;33579;50.058;18.130;2023-03-23T01:49:50;98741.28;;;8.30;100.00
47815;BME280;33579;50.058;18.130;2023-03-23T01:50:58;98739.09;;;8.36;100.00
47815;BME280;33579;50.058;18.130;2023-03-23T01:52:14;98733.47;;;8.40;100.00
47815;BME280;33579;50.058;18.130;2023-03-23T01:53:17;98722.63;;;8.24;100.00
47815;BME280;33579;50.058;18.130;2023-03-23T01:54:20;98730.25;;;8.06;100.00
47815;BME280;33579;50.058;18.130;2023-03-23T01:55:23;98717.31;;;7.83;100.00
47815;BME280;33579;50.058;18.130;2023-03-23T01:56:30;98723.63;;;7.80;100.00
47815;BME280;33579;50.058;18.130;2023-03-23T01:57:33;98719.97;;;7.71;100.00
47815;BME280;33579;50.058;18.130;2023-03-23T01:58:37;98732.22;;;7.71;100.00
47815;BME280;33579;50.058;18.130;2023-03-23T01:59:38;98726.22;;;7.59;100.00
47815;BME280;33579;50.058;18.130;2023-03-23T02:01:04;98734.28;;;7.67;100.00
47815;BME280;33579;50.058;18.130;2023-03-23T02:02:05;98719.88;;;7.73;100.00
47815;BME280;33579;50.058;18.130;2023-03-23T02:03:06;98726.56;;;7.87;100.00
47815;BME280;33579;50.058;18.130;2023-03-23T02:04:08;98727.44;;;7.97;100.00
47815;BME280;33579;50.058;18.130;2023-03-23T02:05:14;98721.44;;;8.07;100.00
47815;BME280;33579;50.058;18.130;2023-03-23T02:06:17;98728.78;;;8.13;100.00
47815;BME280;33579;50.058;18.130;2023-03-23T02:07:41;98727.88;;;8.24;100.00
47815;BME280;33579;50.058;18.130;2023-03-23T02:08:43;98732.72;;;8.28;100.00
47815;BME280;33579;50.058;18.130;2023-03-23T02:09:45;98731.63;;;8.31;100.00
47815;BME280;33579;50.058;18.130;2023-03-23T02:10:45;98734.56;;;8.38;100.00
47815;BME280;33579;50.058;18.130;2023-03-23T02:11:47;98733.59;;;8.39;100.00
47815;BME280;33579;50.058;18.130;2023-03-23T02:12:48;98724.22;;;8.36;100.00
47815;BME280;33579;50.058;18.130;2023-03-23T02:13:49;98728.91;;;8.42;100.00
47815;BME280;33579;50.058;18.130;2023-03-23T02:14:50;98721.50;;;8.48;100.00
47815;BME280;33579;50.058;18.130;2023-03-23T02:17:18;98725.00;;;8.58;100.00
47815;BME280;33579;50.058;18.130;2023-03-23T02:18:44;98730.25;;;8.58;100.00
47815;BME280;33579;50.058;18.130;2023-03-23T02:20:10;98730.81;;;8.62;100.00
47815;BME280;33579;50.058;18.130;2023-03-23T02:27:08;98726.25;;;8.64;100.00
47815;BME280;33579;50.058;18.130;2023-03-23T02:29:44;98727.09;;;8.54;100.00
47815;BME280;33579;50.058;18.130;2023-03-23T02:32:23;98722.41;;;8.37;100.00
47815;BME280;33579;50.058;18.130;2023-03-23T02:33:36;98729.84;;;8.32;100.00
47815;BME280;33579;50.058;18.130;2023-03-23T02:34:45;98719.31;;;8.22;100.00
47815;BME280;33579;50.058;18.130;2023-03-23T02:37:14;98725.56;;;8.30;100.00
47815;BME280;33579;50.058;18.130;2023-03-23T02:38:28;98722.84;;;8.11;100.00
47815;BME280;33579;50.058;18.130;2023-03-23T02:39:42;98724.25;;;7.94;100.00
47815;BME280;33579;50.058;18.130;2023-03-23T02:40:49;98723.34;;;7.83;100.00
47815;BME280;33579;50.058;18.130;2023-03-23T02:41:56;98723.19;;;7.75;100.00
47815;BME280;33579;50.058;18.130;2023-03-23T02:42:59;98718.31;;;7.70;100.00
47815;BME280;33579;50.058;18.130;2023-03-23T02:44:03;98722.59;;;7.71;100.00
47815;BME280;33579;50.058;18.130;2023-03-23T02:45:07;98715.69;;;7.70;100.00
47815;BME280;33579;50.058;18.130;2023-03-23T02:46:09;98717.03;;;7.65;100.00
47815;BME280;33579;50.058;18.130;2023-03-23T02:47:19;98710.72;;;7.67;100.00
47815;BME280;33579;50.058;18.130;2023-03-23T02:48:24;98710.47;;;7.70;100.00
47815;BME280;33579;50.058;18.130;2023-03-23T02:49:29;98712.44;;;7.78;100.00
47815;BME280;33579;50.058;18.130;2023-03-23T02:50:33;98713.47;;;7.87;100.00
47815;BME280;33579;50.058;18.130;2023-03-23T02:51:38;98710.47;;;7.92;100.00
47815;BME280;33579;50.058;18.130;2023-03-23T02:52:40;98704.00;;;7.96;100.00
47815;BME280;33579;50.058;18.130;2023-03-23T02:53:43;98709.13;;;7.97;100.00
47815;BME280;33579;50.058;18.130;2023-03-23T02:54:46;98707.75;;;8.03;100.00
47815;BME280;33579;50.058;18.130;2023-03-23T02:55:48;98697.16;;;8.05;100.00
47815;BME280;33579;50.058;18.130;2023-03-23T02:56:54;98703.22;;;8.05;100.00
47815;BME280;33579;50.058;18.130;2023-03-23T02:58:00;98705.19;;;8.13;100.00
47815;BME280;33579;50.058;18.130;2023-03-23T02:59:01;98708.25;;;8.18;100.00
47815;BME280;33579;50.058;18.130;2023-03-23T03:00:05;98711.59;;;8.20;100.00
47815;BME280;33579;50.058;18.130;2023-03-23T03:02:33;98702.06;;;8.19;100.00
47815;BME280;33579;50.058;18.130;2023-03-23T03:03:35;98701.38;;;8.17;100.00
47815;BME280;33579;50.058;18.130;2023-03-23T03:04:38;98702.63;;;8.23;100.00
47815;BME280;33579;50.058;18.130;2023-03-23T03:06:08;98704.16;;;8.25;100.00
47815;BME280;33579;50.058;18.130;2023-03-23T03:09:42;98701.41;;;8.27;100.00
47815;BME280;33579;50.058;18.130;2023-03-23T03:10:17;98703.44;;;8.23;100.00
47815;BME280;33579;50.058;18.130;2023-03-23T03:11:20;98690.81;;;8.28;100.00
47815;BME280;33579;50.058;18.130;2023-03-23T03:12:28;98700.06;;;8.33;100.00
47815;BME280;33579;50.058;18.130;2023-03-23T03:13:48;98699.63;;;8.27;100.00
47815;BME280;33579;50.058;18.130;2023-03-23T03:14:59;98698.22;;;8.23;100.00
47815;BME280;33579;50.058;18.130;2023-03-23T03:16:14;98693.75;;;8.14;100.00
47815;BME280;33579;50.058;18.130;2023-03-23T03:17:25;98706.34;;;8.20;100.00
47815;BME280;33579;50.058;18.130;2023-03-23T03:18:32;98697.72;;;8.08;100.00
47815;BME280;33579;50.058;18.130;2023-03-23T03:19:42;98707.00;;;8.12;100.00
47815;BME280;33579;50.058;18.130;2023-03-23T03:20:55;98708.97;;;8.20;100.00
47815;BME280;33579;50.058;18.130;2023-03-23T03:21:59;98706.91;;;8.24;100.00
47815;BME280;33579;50.058;18.130;2023-03-23T03:23:22;98706.53;;;8.28;100.00
47815;BME280;33579;50.058;18.130;2023-03-23T03:24:25;98702.09;;;8.29;100.00
47815;BME280;33579;50.058;18.130;2023-03-23T03:25:26;98697.44;;;8.33;100.00
47815;BME280;33579;50.058;18.130;2023-03-23T03:26:30;98701.28;;;8.28;100.00
47815;BME280;33579;50.058;18.130;2023-03-23T03:27:48;98689.53;;;8.23;100.00
47815;BME280;33579;50.058;18.130;2023-03-23T03:28:54;98701.75;;;8.12;100.00
47815;BME280;33579;50.058;18.130;2023-03-23T03:29:56;98707.13;;;8.11;100.00
47815;BME280;33579;50.058;18.130;2023-03-23T03:31:01;98707.38;;;8.08;100.00
47815;BME280;33579;50.058;18.130;2023-03-23T03:32:06;98710.00;;;8.08;100.00
47815;BME280;33579;50.058;18.130;2023-03-23T03:33:07;98710.00;;;8.08;100.00
47815;BME280;33579;50.058;18.130;2023-03-23T03:34:08;98698.69;;;8.07;100.00
47815;BME280;33579;50.058;18.130;2023-03-23T03:35:10;98697.59;;;8.10;100.00
47815;BME280;33579;50.058;18.130;2023-03-23T03:36:18;98704.94;;;8.16;100.00
47815;BME280;33579;50.058;18.130;2023-03-23T03:37:21;98705.06;;;8.14;100.00
47815;BME280;33579;50.058;18.130;2023-03-23T03:38:23;98699.44;;;8.19;100.00
47815;BME280;33579;50.058;18.130;2023-03-23T03:39:27;98701.22;;;8.19;100.00
47815;BME280;33579;50.058;18.130;2023-03-23T03:40:27;98691.22;;;8.02;100.00
47815;BME280;33579;50.058;18.130;2023-03-23T03:41:28;98690.66;;;7.99;100.00
47815;BME280;33579;50.058;18.130;2023-03-23T03:42:29;98691.63;;;7.98;100.00
47815;BME280;33579;50.058;18.130;2023-03-23T03:43:29;98692.59;;;7.97;100.00
47815;BME280;33579;50.058;18.130;2023-03-23T03:44:30;98686.88;;;7.92;100.00
47815;BME280;33579;50.058;18.130;2023-03-23T03:45:31;98683.03;;;7.96;100.00
47815;BME280;33579;50.058;18.130;2023-03-23T03:46:32;98681.69;;;8.01;100.00
47815;BME280;33579;50.058;18.130;2023-03-23T03:47:33;98683.38;;;8.02;100.00
47815;BME280;33579;50.058;18.130;2023-03-23T03:48:33;98675.25;;;8.06;100.00
47815;BME280;33579;50.058;18.130;2023-03-23T03:49:34;98688.78;;;8.11;100.00
47815;BME280;33579;50.058;18.130;2023-03-23T03:50:35;98685.19;;;8.12;100.00
47815;BME280;33579;50.058;18.130;2023-03-23T03:51:35;98682.19;;;8.16;100.00
47815;BME280;33579;50.058;18.130;2023-03-23T03:52:38;98686.06;;;8.22;100.00
47815;BME280;33579;50.058;18.130;2023-03-23T03:53:39;98682.94;;;8.28;100.00
47815;BME280;33579;50.058;18.130;2023-03-23T03:54:39;98683.38;;;8.34;100.00
47815;BME280;33579;50.058;18.130;2023-03-23T03:55:40;98683.78;;;8.39;100.00
47815;BME280;33579;50.058;18.130;2023-03-23T03:56:44;98690.44;;;8.43;100.00
47815;BME280;33579;50.058;18.130;2023-03-23T03:58:13;98690.13;;;8.36;100.00
47815;BME280;33579;50.058;18.130;2023-03-23T03:59:37;98686.56;;;8.37;100.00
47815;BME280;33579;50.058;18.130;2023-03-23T04:00:55;98689.44;;;8.34;100.00
47815;BME280;33579;50.058;18.130;2023-03-23T04:01:59;98695.06;;;8.29;100.00
47815;BME280;33579;50.058;18.130;2023-03-23T04:02:59;98687.72;;;8.23;100.00
47815;BME280;33579;50.058;18.130;2023-03-23T04:04:34;98694.50;;;8.26;100.00
47815;BME280;33579;50.058;18.130;2023-03-23T04:05:35;98687.72;;;8.23;100.00
47815;BME280;33579;50.058;18.130;2023-03-23T04:06:35;98691.03;;;8.25;100.00
47815;BME280;33579;50.058;18.130;2023-03-23T04:07:36;98689.25;;;8.26;100.00
47815;BME280;33579;50.058;18.130;2023-03-23T04:08:38;98685.56;;;8.28;100.00
47815;BME280;33579;50.058;18.130;2023-03-23T04:09:48;98682.22;;;8.26;100.00
47815;BME280;33579;50.058;18.130;2023-03-23T04:10:52;98683.72;;;8.19;100.00
47815;BME280;33579;50.058;18.130;2023-03-23T04:11:53;98682.19;;;8.16;100.00
47815;BME280;33579;50.058;18.130;2023-03-23T04:13:13;98677.91;;;8.15;100.00
47815;BME280;33579;50.058;18.130;2023-03-23T04:14:14;98679.44;;;8.18;100.00
47815;BME280;33579;50.058;18.130;2023-03-23T04:15:17;98682.56;;;8.12;100.00
47815;BME280;33579;50.058;18.130;2023-03-23T04:16:18;98680.78;;;8.12;100.00
47815;BME280;33579;50.058;18.130;2023-03-23T04:17:19;98679.72;;;8.15;100.00
47815;BME280;33579;50.058;18.130;2023-03-23T04:18:20;98680.91;;;8.11;100.00
47815;BME280;33579;50.058;18.130;2023-03-23T04:19:25;98681.44;;;8.05;100.00
47815;BME280;33579;50.058;18.130;2023-03-23T04:20:26;98682.00;;;8.08;100.00
47815;BME280;33579;50.058;18.130;2023-03-23T04:21:27;98687.13;;;8.10;100.00
47815;BME280;33579;50.058;18.130;2023-03-23T04:22:28;98683.41;;;8.12;100.00
47815;BME280;33579;50.058;18.130;2023-03-23T04:23:30;98691.97;;;8.14;100.00
47815;BME280;33579;50.058;18.130;2023-03-23T04:24:34;98685.06;;;8.13;100.00
47815;BME280;33579;50.058;18.130;2023-03-23T04:25:35;98683.03;;;8.17;100.00
47815;BME280;33579;50.058;18.130;2023-03-23T04:26:35;98680.84;;;8.22;100.00
47815;BME280;33579;50.058;18.130;2023-03-23T04:27:44;98685.69;;;8.27;100.00
47815;BME280;33579;50.058;18.130;2023-03-23T04:28:44;98681.53;;;8.24;100.00
47815;BME280;33579;50.058;18.130;2023-03-23T04:30:14;98685.25;;;8.22;100.00
47815;BME280;33579;50.058;18.130;2023-03-23T04:31:24;98689.78;;;8.20;100.00
47815;BME280;33579;50.058;18.130;2023-03-23T04:32:27;98689.22;;;8.16;100.00
47815;BME280;33579;50.058;18.130;2023-03-23T04:33:29;98689.66;;;8.21;100.00
47815;BME280;33579;50.058;18.130;2023-03-23T04:34:29;98675.19;;;8.27;100.00
47815;BME280;33579;50.058;18.130;2023-03-23T04:35:30;98682.66;;;8.32;100.00
47815;BME280;33579;50.058;18.130;2023-03-23T04:36:41;98681.28;;;8.27;100.00
47815;BME280;33579;50.058;18.130;2023-03-23T04:37:48;98683.75;;;8.29;100.00
47815;BME280;33579;50.058;18.130;2023-03-23T04:38:51;98676.59;;;8.31;100.00
47815;BME280;33579;50.058;18.130;2023-03-23T04:39:56;98682.41;;;8.35;100.00
47815;BME280;33579;50.058;18.130;2023-03-23T04:40:57;98680.22;;;8.40;100.00
47815;BME280;33579;50.058;18.130;2023-03-23T04:42:16;98683.78;;;8.39;100.00
47815;BME280;33579;50.058;18.130;2023-03-23T04:43:23;98683.16;;;8.47;100.00
47815;BME280;33579;50.058;18.130;2023-03-23T04:44:32;98681.22;;;8.49;100.00
47815;BME280;33579;50.058;18.130;2023-03-23T04:45:54;98688.28;;;8.58;100.00
47815;BME280;33579;50.058;18.130;2023-03-23T04:46:54;98687.59;;;8.56;100.00
47815;BME280;33579;50.058;18.130;2023-03-23T04:47:56;98686.50;;;8.58;100.00
47815;BME280;33579;50.058;18.130;2023-03-23T04:48:59;98688.63;;;8.65;100.00
47815;BME280;33579;50.058;18.130;2023-03-23T04:50:11;98689.31;;;8.67;100.00
47815;BME280;33579;50.058;18.130;2023-03-23T04:51:12;98690.81;;;8.69;100.00
47815;BME280;33579;50.058;18.130;2023-03-23T04:52:15;98687.09;;;8.72;100.00
47815;BME280;33579;50.058;18.130;2023-03-23T04:53:18;98683.66;;;8.71;100.00
47815;BME280;33579;50.058;18.130;2023-03-23T04:54:19;98683.09;;;8.68;100.00
47815;BME280;33579;50.058;18.130;2023-03-23T04:55:25;98676.75;;;8.70;100.00
47815;BME280;33579;50.058;18.130;2023-03-23T04:56:30;98669.72;;;8.71;100.00
47815;BME280;33579;50.058;18.130;2023-03-23T04:57:35;98674.69;;;8.74;100.00
47815;BME280;33579;50.058;18.130;2023-03-23T04:58:59;98663.47;;;8.62;100.00
47815;BME280;33579;50.058;18.130;2023-03-23T05:00:08;98672.88;;;8.65;100.00
47815;BME280;33579;50.058;18.130;2023-03-23T05:01:15;98671.34;;;8.62;100.00
47815;BME280;33579;50.058;18.130;2023-03-23T05:02:25;98667.88;;;8.62;100.00
47815;BME280;33579;50.058;18.130;2023-03-23T05:03:26;98675.34;;;8.66;100.00
47815;BME280;33579;50.058;18.130;2023-03-23T05:04:29;98677.56;;;8.71;100.00
47815;BME280;33579;50.058;18.130;2023-03-23T05:05:39;98676.47;;;8.74;100.00
47815;BME280;33579;50.058;18.130;2023-03-23T05:06:41;98677.06;;;8.77;100.00
47815;BME280;33579;50.058;18.130;2023-03-23T05:07:53;98674.56;;;8.76;100.00
47815;BME280;33579;50.058;18.130;2023-03-23T05:08:56;98679.41;;;8.80;100.00
47815;BME280;33579;50.058;18.130;2023-03-23T05:09:57;98678.03;;;8.86;100.00
47815;BME280;33579;50.058;18.130;2023-03-23T05:11:01;98684.94;;;8.87;100.00
47815;BME280;33579;50.058;18.130;2023-03-23T05:12:08;98681.06;;;8.81;100.00
47815;BME280;33579;50.058;18.130;2023-03-23T05:13:16;98687.38;;;8.69;100.00
47815;BME280;33579;50.058;18.130;2023-03-23T05:14:20;98690.28;;;8.66;100.00
47815;BME280;33579;50.058;18.130;2023-03-23T05:15:28;98684.16;;;8.55;100.00
47815;BME280;33579;50.058;18.130;2023-03-23T05:16:31;98684.94;;;8.46;100.00
47815;BME280;33579;50.058;18.130;2023-03-23T05:17:33;98686.00;;;8.43;100.00
47815;BME280;33579;50.058;18.130;2023-03-23T05:18:36;98677.44;;;8.41;100.00
47815;BME280;33579;50.058;18.130;2023-03-23T05:19:39;98680.22;;;8.40;100.00
47815;BME280;33579;50.058;18.130;2023-03-23T05:20:51;98693.63;;;8.47;100.00
47815;BME280;33579;50.058;18.130;2023-03-23T05:21:56;98687.44;;;8.48;100.00
47815;BME280;33579;50.058;18.130;2023-03-23T05:22:57;98681.66;;;8.54;100.00
47815;BME280;33579;50.058;18.130;2023-03-23T05:24:03;98684.75;;;8.69;100.00
47815;BME280;33579;50.058;18.130;2023-03-23T05:25:07;98680.06;;;8.73;100.00
47815;BME280;33579;50.058;18.130;2023-03-23T05:26:09;98681.75;;;8.83;100.00
47815;BME280;33579;50.058;18.130;2023-03-23T05:27:10;98684.78;;;8.89;100.00
47815;BME280;33579;50.058;18.130;2023-03-23T05:28:13;98679.28;;;9.02;100.00
47815;BME280;33579;50.058;18.130;2023-03-23T05:29:34;98681.63;;;9.05;100.00
47815;BME280;33579;50.058;18.130;2023-03-23T05:30:35;98685.38;;;9.12;100.00
47815;BME280;33579;50.058;18.130;2023-03-23T05:31:36;98701.00;;;9.23;100.00
47815;BME280;33579;50.058;18.130;2023-03-23T05:32:37;98697.00;;;9.29;100.00
47815;BME280;33579;50.058;18.130;2023-03-23T05:33:52;98693.53;;;9.38;100.00
47815;BME280;33579;50.058;18.130;2023-03-23T05:35:15;98694.34;;;9.49;100.00
47815;BME280;33579;50.058;18.130;2023-03-23T05:36:16;98698.91;;;9.56;100.00
47815;BME280;33579;50.058;18.130;2023-03-23T05:37:43;98700.44;;;9.59;100.00
47815;BME280;33579;50.058;18.130;2023-03-23T05:38:45;98690.59;;;9.61;100.00
47815;BME280;33579;50.058;18.130;2023-03-23T05:39:46;98693.22;;;9.61;100.00
47815;BME280;33579;50.058;18.130;2023-03-23T05:41:06;98700.56;;;9.67;100.00
47815;BME280;33579;50.058;18.130;2023-03-23T05:42:12;98696.72;;;9.52;100.00
47815;BME280;33579;50.058;18.130;2023-03-23T05:43:24;98701.00;;;9.53;100.00
47815;BME280;33579;50.058;18.130;2023-03-23T05:44:54;98699.19;;;9.53;100.00
47815;BME280;33579;50.058;18.130;2023-03-23T05:45:54;98702.38;;;9.57;100.00
47815;BME280;33579;50.058;18.130;2023-03-23T05:46:55;98698.47;;;9.61;100.00
47815;BME280;33579;50.058;18.130;2023-03-23T05:47:55;98699.19;;;9.63;100.00
47815;BME280;33579;50.058;18.130;2023-03-23T05:48:56;98700.97;;;9.63;100.00
47815;BME280;33579;50.058;18.130;2023-03-23T05:50:04;98709.84;;;9.62;100.00
47815;BME280;33579;50.058;18.130;2023-03-23T05:51:05;98704.16;;;9.56;100.00
47815;BME280;33579;50.058;18.130;2023-03-23T05:52:07;98704.03;;;9.58;100.00
47815;BME280;33579;50.058;18.130;2023-03-23T05:53:08;98706.22;;;9.63;100.00